Federal Rideau — VRWG7 — position and weather

sailwx.info

Track history (hours):
 
Tides and Currents Weather Stations Pressure Air Temp Water Temp Dewpoint Dewpoint Depression Visibility Wind Speed Wind Dir Waves Ship Positions

Federal Rideau

Last reported at 2015-Feb-19 00:33 UTC. Time now 2015-Mar-04 20:18 UTC.
Position N 40°50' E 028°37'.
Warning: this ship's position is 13 days out of date.

Length 200 m; draft 5.9 m.

Type: Cargo ship. MMSI: 477734000.

Date/timePositionNaut miles runAvg speedWind from/ knotsBaromVisibWave heightAir tempDewpointWater temp
2015-Feb-19 00:33N 40°50' E 028°37'1010.3
2015-Feb-18 23:33N 40°49' E 028°51'1312.8
2015-Feb-18 22:33N 40°48' E 029°08'4 3.0
2015-Feb-18 21:23N 40°48' E 029°12'0 0.2
2015-Feb-18 20:29N 40°48' E 029°12'0 0.1
2015-Feb-18 19:23N 40°48' E 029°12'0 0.1
2015-Feb-18 18:29N 40°48' E 029°12'0 0.2
2015-Feb-18 17:29N 40°48' E 029°12'0 0.0
2015-Feb-18 16:29N 40°48' E 029°12'0 0.0
2015-Feb-18 15:23N 40°48' E 029°12'0 0.1
2015-Feb-18 14:29N 40°48' E 029°12'0 0.0
2015-Feb-18 13:23N 40°48' E 029°12'0 0.1
2015-Feb-18 12:23N 40°48' E 029°12'0 0.0
2015-Feb-18 11:26N 40°48' E 029°12'0 0.0
2015-Feb-17 13:07N 40°48' E 029°12'0 0.0
2015-Feb-17 12:07N 40°48' E 029°12'0 0.1
2015-Feb-17 11:31N 40°48' E 029°12'0 0.1
2015-Feb-17 10:31N 40°48' E 029°12'0 0.0
2015-Feb-17 09:25N 40°48' E 029°12'0 0.0
2015-Feb-17 08:31N 40°48' E 029°12'0 0.0
2015-Feb-17 07:32N 40°48' E 029°12'0 0.0
2015-Feb-17 06:25N 40°48' E 029°12'0 0.0
2015-Feb-17 05:31N 40°48' E 029°12'0 0.0
2015-Feb-17 04:32N 40°48' E 029°12'0 0.0
2015-Feb-17 03:32N 40°48' E 029°12'0 0.0
2015-Feb-17 02:19N 40°48' E 029°12'0 0.6
2015-Feb-17 01:32N 40°48' E 029°12'8 8.6
2015-Feb-17 00:33N 40°42' E 029°03'6 6.1
2015-Feb-16 23:33N 40°43' E 029°11'5 4.9
2015-Feb-16 22:33N 40°48' E 029°10'3 2.6
2015-Feb-16 21:33N 40°50' E 029°11'5 3.9
2015-Feb-16 20:24N 40°51' E 029°17'0 0.0
2015-Feb-16 19:32N 40°51' E 029°17'0 0.0
2015-Feb-16 18:30N 40°51' E 029°17'0 0.0
2015-Feb-16 17:28N 40°51' E 029°17'0 0.0
2015-Feb-16 16:22N 40°51' E 029°17'  
Track history (hours):
 
Tides and Currents Weather Stations Pressure Air Temp Water Temp Dewpoint Dewpoint Depression Visibility Wind Speed Wind Dir Waves Ship Positions

Federal Rideau

Last reported at 2015-Feb-19 00:33 UTC. Time now 2015-Mar-04 20:18 UTC.
Position N 40°50' E 028°37'.
Warning: this ship's position is 13 days out of date.

Length 200 m; draft 5.9 m.

Type: Cargo ship. MMSI: 477734000.

Date/timePositionNaut miles runAvg speedWind from/ knotsBaromVisibWave heightAir tempDewpointWater temp
2015-Feb-19 00:33N 40°50' E 028°37'1010.3
2015-Feb-18 23:33N 40°49' E 028°51'1312.8
2015-Feb-18 22:33N 40°48' E 029°08'4 3.0
2015-Feb-18 21:23N 40°48' E 029°12'0 0.2
2015-Feb-18 20:29N 40°48' E 029°12'0 0.1
2015-Feb-18 19:23N 40°48' E 029°12'0 0.1
2015-Feb-18 18:29N 40°48' E 029°12'0 0.2
2015-Feb-18 17:29N 40°48' E 029°12'0 0.0
2015-Feb-18 16:29N 40°48' E 029°12'0 0.0
2015-Feb-18 15:23N 40°48' E 029°12'0 0.1
2015-Feb-18 14:29N 40°48' E 029°12'0 0.0
2015-Feb-18 13:23N 40°48' E 029°12'0 0.1
2015-Feb-18 12:23N 40°48' E 029°12'0 0.0
2015-Feb-18 11:26N 40°48' E 029°12'0 0.0
2015-Feb-17 13:07N 40°48' E 029°12'0 0.0
2015-Feb-17 12:07N 40°48' E 029°12'0 0.1
2015-Feb-17 11:31N 40°48' E 029°12'0 0.1
2015-Feb-17 10:31N 40°48' E 029°12'0 0.0
2015-Feb-17 09:25N 40°48' E 029°12'0 0.0
2015-Feb-17 08:31N 40°48' E 029°12'0 0.0
2015-Feb-17 07:32N 40°48' E 029°12'0 0.0
2015-Feb-17 06:25N 40°48' E 029°12'0 0.0
2015-Feb-17 05:31N 40°48' E 029°12'0 0.0
2015-Feb-17 04:32N 40°48' E 029°12'0 0.0
2015-Feb-17 03:32N 40°48' E 029°12'0 0.0
2015-Feb-17 02:19N 40°48' E 029°12'0 0.6
2015-Feb-17 01:32N 40°48' E 029°12'8 8.6
2015-Feb-17 00:33N 40°42' E 029°03'6 6.1
2015-Feb-16 23:33N 40°43' E 029°11'5 4.9
2015-Feb-16 22:33N 40°48' E 029°10'3 2.6
2015-Feb-16 21:33N 40°50' E 029°11'5 3.9
2015-Feb-16 20:24N 40°51' E 029°17'0 0.0
2015-Feb-16 19:32N 40°51' E 029°17'0 0.0
2015-Feb-16 18:30N 40°51' E 029°17'0 0.0
2015-Feb-16 17:28N 40°51' E 029°17'0 0.0
2015-Feb-16 16:22N 40°51' E 029°17'  

Dump ship's entire track history